Time;durP1;ratioP1;P1;durP2;ratioP2;P2;SDS_P1;SDS_P2;PMS_P1;PMS_P2;Temp;Humidity;BMP_temperature;BMP_pressure;BME280_temperature;BME280_humidity;BME280_pressure;Samples;Min_cycle;Max_cycle;Signal;HPM_P1;HPM_P2
2022/05/24 00:01:10;;;;;;;32.03;18.42;;;;;;;12.75;100.00;99172.47;5035858;28;20024;-78
2022/05/24 00:03:36;;;;;;;20.92;18.08;;;;;;;12.72;100.00;99167.47;5032786;28;20032;-79
2022/05/24 00:06:01;;;;;;;26.45;16.50;;;;;;;12.84;100.00;99197.28;5034140;28;20136;-78
2022/05/24 00:08:27;;;;;;;20.63;17.63;;;;;;;12.74;100.00;99185.81;5032600;28;20038;-78
2022/05/24 00:10:53;;;;;;;19.23;17.17;;;;;;;12.77;100.00;99190.81;5032373;28;20030;-78
2022/05/24 00:13:18;;;;;;;17.88;15.95;;;;;;;12.72;100.00;99180.63;5032703;28;20025;-78
2022/05/24 00:15:44;;;;;;;17.17;15.30;;;;;;;12.73;100.00;99187.59;5016704;28;20923;-78
2022/05/24 00:18:12;;;;;;;21.85;17.15;;;;;;;12.71;100.00;99188.66;5035123;28;20094;-79
2022/05/24 00:20:42;;;;;;;18.13;15.63;;;;;;;12.59;100.00;99176.44;5036448;28;20115;-78
2022/05/24 00:23:08;;;;;;;21.95;15.65;;;;;;;12.55;100.00;99183.75;5034594;28;20135;-78
2022/05/24 00:25:36;;;;;;;30.08;16.27;;;;;;;12.43;100.00;99174.16;5038575;28;20141;-79
2022/05/24 00:28:02;;;;;;;18.25;15.05;;;;;;;12.50;100.00;99192.97;5049165;28;20850;-79
2022/05/24 00:30:28;;;;;;;17.02;14.57;;;;;;;12.43;100.00;99183.88;5051873;28;20090;-77
2022/05/24 00:32:54;;;;;;;21.30;15.18;;;;;;;12.33;100.00;99189.00;5054646;28;20127;-78
2022/05/24 00:35:20;;;;;;;20.15;14.45;;;;;;;12.32;100.00;99186.47;5054530;28;20028;-78
2022/05/24 00:37:46;;;;;;;18.83;14.05;;;;;;;12.43;100.00;99204.94;5054431;28;20134;-75
2022/05/24 00:40:25;;;;;;;27.45;15.00;;;;;;;12.30;100.00;99184.78;5052168;28;20043;-77
2022/05/24 00:42:51;;;;;;;18.13;14.73;;;;;;;12.26;100.00;99179.91;5052230;28;20031;-77
2022/05/24 00:45:39;;;;;;;18.67;14.45;;;;;;;12.28;100.00;99189.34;5051572;28;20051;-78
2022/05/24 00:48:17;;;;;;;13.88;12.13;;;;;;;11.84;100.00;99120.81;5034098;28;20040;-79
2022/05/24 00:50:47;;;;;;;28.10;12.25;;;;;;;12.32;100.00;99197.84;5054997;28;20023;-75
2022/05/24 00:53:22;;;;;;;14.13;11.27;;;;;;;12.30;100.00;99203.22;5052031;28;21026;-79
2022/05/24 00:56:02;;;;;;;18.05;11.75;;;;;;;12.27;100.00;99200.84;5052029;28;20032;-77
2022/05/24 00:58:33;;;;;;;15.73;12.35;;;;;;;12.25;100.00;99197.50;5051629;28;20039;-75
2022/05/24 01:01:01;;;;;;;15.82;11.23;;;;;;;12.21;100.00;99196.03;5055632;28;20942;-76
2022/05/24 01:03:26;;;;;;;13.52;10.77;;;;;;;12.19;100.00;99187.44;5052513;28;20032;-78
2022/05/24 01:05:52;;;;;;;13.73;10.93;;;;;;;12.07;100.00;99155.91;5053862;28;20899;-79
2022/05/24 01:08:18;;;;;;;16.67;11.43;;;;;;;12.16;100.00;99173.66;5050882;28;20078;-77
2022/05/24 01:10:49;;;;;;;14.02;10.40;;;;;;;12.01;100.00;99154.59;5052148;28;20113;-78
2022/05/24 01:13:17;;;;;;;12.82;10.05;;;;;;;12.19;100.00;99194.47;5052158;28;20024;-77
2022/05/24 01:15:44;;;;;;;20.63;11.27;;;;;;;12.14;100.00;99183.44;5053776;28;20027;-77
2022/05/24 01:18:09;;;;;;;13.77;9.93;;;;;;;11.94;100.00;99140.19;5052320;28;20032;-78
2022/05/24 01:20:36;;;;;;;13.68;9.98;;;;;;;12.12;100.00;99174.84;5052544;28;20910;-76
2022/05/24 01:23:04;;;;;;;17.42;10.27;;;;;;;12.10;100.00;99188.09;5052375;28;20068;-77
2022/05/24 01:25:51;;;;;;;15.77;11.68;;;;;;;12.00;100.00;99176.59;5052034;28;20034;-77
2022/05/24 01:28:25;;;;;;;24.33;10.82;;;;;;;12.07;100.00;99188.34;5052461;28;20040;-78
2022/05/24 01:30:50;;;;;;;15.50;10.60;;;;;;;11.81;100.00;99146.50;5055243;28;20032;-80
2022/05/24 01:36:10;;;;;;;15.00;8.43;;;;;;;11.95;100.00;99168.22;5054098;28;20043;-78
2022/05/24 01:38:35;;;;;;;12.38;8.05;;;;;;;11.79;100.00;99157.16;5056871;28;20028;-79
2022/05/24 01:41:02;;;;;;;17.80;8.52;;;;;;;11.92;100.00;99192.13;5055068;28;20035;-79
2022/05/24 01:43:28;;;;;;;15.02;8.65;;;;;;;11.74;100.00;99169.81;5055904;28;20094;-80
2022/05/24 01:45:58;;;;;;;13.82;8.10;;;;;;;11.61;100.00;99158.50;5058717;28;20805;-77
2022/05/24 01:48:28;;;;;;;11.43;8.25;;;;;;;11.80;100.00;99203.56;5057707;28;20139;-79
2022/05/24 01:50:55;;;;;;;11.75;8.48;;;;;;;11.61;100.00;99176.91;5039258;28;20078;-78
2022/05/24 01:53:25;;;;;;;13.20;7.20;;;;;;;11.67;100.00;99200.13;5054167;28;20032;-78
2022/05/24 01:55:52;;;;;;;11.63;8.90;;;;;;;11.52;100.00;99188.97;5052637;28;20089;-78
2022/05/24 01:58:20;;;;;;;11.20;8.02;;;;;;;11.55;100.00;99207.16;5038491;28;20028;-76
2022/05/24 02:00:51;;;;;;;14.70;9.23;;;;;;;11.42;100.00;99195.00;5054141;28;20028;-75
2022/05/24 02:03:16;;;;;;;14.05;10.05;;;;;;;11.32;100.00;99188.75;5054788;28;20058;-78
2022/05/24 02:05:42;;;;;;;12.18;9.05;;;;;;;11.28;100.00;99194.22;5054828;28;20028;-78
2022/05/24 02:08:09;;;;;;;17.65;9.30;;;;;;;11.37;100.00;99200.59;5056278;28;20769;-78
2022/05/24 02:10:39;;;;;;;9.95;8.02;;;;;;;11.43;100.00;99201.94;5037134;28;20024;-77
2022/05/24 02:13:04;;;;;;;11.13;7.95;;;;;;;11.31;100.00;99182.63;5052493;28;20082;-78
2022/05/24 02:15:33;;;;;;;18.92;7.45;;;;;;;11.39;100.00;99195.25;5053463;28;20082;-78
2022/05/24 02:18:12;;;;;;;13.13;7.53;;;;;;;11.16;100.00;99153.03;5054204;28;20098;-79
2022/05/24 02:20:43;;;;;;;13.77;7.35;;;;;;;11.28;100.00;99153.94;5054671;28;20061;-80
2022/05/24 02:23:11;;;;;;;8.48;6.07;;;;;;;11.29;100.00;99164.31;5054237;28;20036;-79
2022/05/24 02:25:47;;;;;;;8.57;6.22;;;;;;;11.31;100.00;99174.75;5051914;28;20926;-78
2022/05/24 02:28:14;;;;;;;11.13;6.80;;;;;;;11.34;100.00;99186.81;5052249;28;20023;-78
2022/05/24 02:30:42;;;;;;;14.63;7.07;;;;;;;11.06;100.00;99144.13;5052434;28;20966;-79
2022/05/24 02:33:08;;;;;;;10.32;6.35;;;;;;;11.21;100.00;99182.47;5053168;28;20909;-78
2022/05/24 02:35:33;;;;;;;11.00;6.07;;;;;;;11.22;100.00;99188.56;5056145;28;20028;-78
2022/05/24 02:37:59;;;;;;;16.75;8.32;;;;;;;11.13;100.00;99173.44;5053136;28;20023;-78
2022/05/24 02:43:08;;;;;;;8.30;6.35;;;;;;;11.12;100.00;99183.09;5053449;28;20038;-79
2022/05/24 02:45:34;;;;;;;12.25;8.13;;;;;;;11.13;100.00;99179.53;5054287;28;20028;-79
2022/05/24 02:47:59;;;;;;;15.98;7.70;;;;;;;11.15;100.00;99184.69;5052535;28;20020;-79
2022/05/24 02:50:25;;;;;;;9.45;6.72;;;;;;;11.17;100.00;99181.00;5053159;28;20836;-79
2022/05/24 02:52:50;;;;;;;14.77;7.47;;;;;;;11.21;100.00;99177.22;5036522;28;20032;-79
2022/05/24 02:55:16;;;;;;;16.58;6.40;;;;;;;11.22;100.00;99173.59;5053324;28;20083;-79
2022/05/24 02:57:42;;;;;;;20.30;6.43;;;;;;;11.00;100.00;99147.19;5054490;28;20020;-78
2022/05/24 03:00:30;;;;;;;10.23;5.55;;;;;;;11.23;100.00;99192.84;5050180;28;20081;-78
2022/05/24 03:02:56;;;;;;;10.80;5.47;;;;;;;11.12;100.00;99180.47;5054919;28;20840;-78
2022/05/24 03:05:23;;;;;;;8.38;5.50;;;;;;;11.26;100.00;99196.09;5041499;28;20024;-78
2022/05/24 03:10:33;;;;;;;10.40;5.57;;;;;;;11.19;100.00;99173.00;5063267;28;20092;-77
2022/05/24 03:15:44;;;;;;;11.27;4.15;;;;;;;11.23;100.00;99196.34;5050522;28;20882;-74
2022/05/24 03:18:14;;;;;;;10.73;4.25;;;;;;;11.28;100.00;99199.47;5051681;28;20032;-76
2022/05/24 03:20:40;;;;;;;11.02;4.22;;;;;;;11.28;100.00;99193.38;5051687;28;20864;-75
2022/05/24 03:23:05;;;;;;;12.15;4.28;;;;;;;11.22;100.00;99184.13;5051941;28;20135;-76
2022/05/24 03:25:32;;;;;;;8.52;3.83;;;;;;;11.27;100.00;99186.44;5051435;28;20028;-77
2022/05/24 03:27:59;;;;;;;9.55;4.55;;;;;;;11.23;100.00;99180.56;5051334;28;20225;-74
2022/05/24 03:30:25;;;;;;;9.32;3.90;;;;;;;11.23;100.00;99184.97;5052413;28;20032;-75
2022/05/24 03:32:50;;;;;;;10.20;3.92;;;;;;;11.11;100.00;99173.56;5052573;28;20024;-78
2022/05/24 03:35:16;;;;;;;11.23;4.30;;;;;;;11.20;100.00;99196.56;5049831;28;20032;-77
2022/05/24 03:37:41;;;;;;;6.57;3.53;;;;;;;11.12;100.00;99198.03;5058079;28;20020;-76
2022/05/24 03:40:08;;;;;;;7.30;3.67;;;;;;;11.05;100.00;99202.91;5051503;28;20020;-75
2022/05/24 03:42:33;;;;;;;8.38;3.40;;;;;;;10.95;100.00;99186.09;5051943;28;20024;-75
2022/05/24 03:44:59;;;;;;;6.38;3.20;;;;;;;11.13;100.00;99221.59;5050693;28;20032;-76
2022/05/24 03:47:24;;;;;;;5.70;3.22;;;;;;;11.16;100.00;99224.00;5052825;28;20051;-74
2022/05/24 03:49:49;;;;;;;9.23;4.00;;;;;;;11.09;100.00;99219.28;5048177;28;20364;-77
2022/05/24 03:52:15;;;;;;;5.75;3.05;;;;;;;11.01;100.00;99222.50;5052846;28;20146;-76
2022/05/24 03:54:40;;;;;;;9.27;3.40;;;;;;;11.09;100.00;99241.16;5053857;28;20030;-77
2022/05/24 03:59:51;;;;;;;10.13;3.88;;;;;;;10.80;100.00;99208.22;5053291;28;20097;-76
2022/05/24 04:02:16;;;;;;;8.23;3.35;;;;;;;10.94;100.00;99230.91;5033993;28;20139;-77
2022/05/24 04:04:42;;;;;;;8.75;3.15;;;;;;;10.70;100.00;99192.25;5050954;28;20879;-76
2022/05/24 04:07:08;;;;;;;8.00;3.58;;;;;;;10.76;100.00;99207.59;5049542;28;20221;-77
2022/05/24 04:09:34;;;;;;;10.38;2.92;;;;;;;10.83;100.00;99244.78;5048179;28;20861;-78
2022/05/24 04:12:00;;;;;;;7.05;3.53;;;;;;;10.66;100.00;99231.97;5049894;28;20073;-74
2022/05/24 04:14:25;;;;;;;9.93;3.60;;;;;;;10.59;100.00;99257.00;5052313;28;20048;-73
2022/05/24 04:16:52;;;;;;;8.50;3.67;;;;;;;10.63;100.00;99284.72;5052353;28;20592;-76
2022/05/24 04:19:17;;;;;;;8.27;3.55;;;;;;;10.65;100.00;99283.69;5051075;28;20186;-78
2022/05/24 04:21:43;;;;;;;16.58;3.45;;;;;;;10.64;100.00;99283.81;5052036;28;20024;-77
2022/05/24 04:24:08;;;;;;;7.10;3.60;;;;;;;10.60;100.00;99274.44;5051967;28;20092;-77
2022/05/24 04:26:34;;;;;;;8.20;3.65;;;;;;;10.65;100.00;99267.06;5053218;28;20737;-79
2022/05/24 04:28:59;;;;;;;7.85;3.58;;;;;;;10.58;100.00;99252.66;5049563;28;20476;-77
2022/05/24 04:31:25;;;;;;;8.30;4.57;;;;;;;10.59;100.00;99260.47;5049609;28;20040;-75
2022/05/24 04:33:50;;;;;;;8.93;3.95;;;;;;;10.56;100.00;99252.78;5052937;28;20805;-76
2022/05/24 04:36:16;;;;;;;7.55;3.90;;;;;;;10.20;100.00;99198.38;5049812;28;20028;-77
2022/05/24 04:38:42;;;;;;;9.55;4.30;;;;;;;10.48;100.00;99244.59;5051267;28;20911;-76
2022/05/24 04:43:52;;;;;;;7.72;4.00;;;;;;;10.53;100.00;99281.91;5051324;28;20975;-77
2022/05/24 04:46:17;;;;;;;12.60;5.07;;;;;;;10.57;100.00;99296.50;5050431;28;20039;-78
2022/05/24 04:48:43;;;;;;;10.48;4.75;;;;;;;10.43;100.00;99288.72;5049044;28;20139;-77
2022/05/24 04:51:08;;;;;;;13.32;4.60;;;;;;;10.52;100.00;99308.25;5052133;28;20947;-78
2022/05/24 04:53:34;;;;;;;9.57;3.95;;;;;;;10.52;100.00;99308.25;5033661;28;20795;-75
2022/05/24 04:55:59;;;;;;;8.88;3.95;;;;;;;10.49;100.00;99292.69;5052367;28;20768;-79
2022/05/24 04:58:25;;;;;;;8.27;4.18;;;;;;;10.31;100.00;99270.31;5051372;28;20028;-78
2022/05/24 05:00:50;;;;;;;11.45;5.25;;;;;;;10.55;100.00;99315.91;5050804;28;20071;-78
2022/05/24 05:03:20;;;;;;;8.75;3.83;;;;;;;10.48;100.00;99312.03;5054079;28;20028;-79
2022/05/24 05:05:47;;;;;;;10.07;4.18;;;;;;;10.38;100.00;99289.94;5054705;28;20034;-77
2022/05/24 05:08:13;;;;;;;7.22;3.50;;;;;;;10.47;100.00;99310.38;5054653;28;20032;-77
2022/05/24 05:10:38;;;;;;;8.63;3.85;;;;;;;10.54;100.00;99314.25;5054894;28;20900;-75
2022/05/24 05:13:04;;;;;;;9.63;3.97;;;;;;;10.61;100.00;99318.16;5055734;28;20097;-77
2022/05/24 05:15:31;;;;;;;11.13;4.60;;;;;;;10.58;100.00;99300.78;5051898;28;20903;-75
2022/05/24 05:18:11;;;;;;;6.25;3.70;;;;;;;10.43;100.00;99278.22;5043516;28;20927;-77
2022/05/24 05:20:41;;;;;;;9.63;4.07;;;;;;;10.41;100.00;99280.09;5052662;28;20090;-77
2022/05/24 05:23:11;;;;;;;9.45;3.97;;;;;;;10.14;100.00;99239.94;5033818;28;20038;-75
2022/05/24 05:25:38;;;;;;;6.53;3.25;;;;;;;10.44;100.00;99310.56;5038094;28;20853;-74
2022/05/24 05:28:04;;;;;;;6.10;3.63;;;;;;;10.35;100.00;99295.41;5037605;28;20021;-77
2022/05/24 05:33:14;;;;;;;5.97;3.33;;;;;;;10.43;100.00;99329.88;5036583;28;20114;-79
2022/05/24 05:35:39;;;;;;;8.32;3.83;;;;;;;10.41;100.00;99335.22;5051771;28;20036;-78
2022/05/24 05:38:05;;;;;;;7.60;3.65;;;;;;;10.35;100.00;99321.66;5035905;28;20114;-78
2022/05/24 05:40:30;;;;;;;9.13;2.85;;;;;;;10.42;100.00;99339.53;5034762;28;20940;-79
2022/05/24 05:42:56;;;;;;;6.00;3.13;;;;;;;10.33;100.00;99334.06;5034376;28;20919;-78
2022/05/24 05:45:21;;;;;;;6.53;3.22;;;;;;;10.47;100.00;99341.88;5034409;28;20935;-76
2022/05/24 05:47:48;;;;;;;5.82;2.85;;;;;;;10.24;100.00;99304.84;5043321;28;20031;-78
2022/05/24 05:50:14;;;;;;;5.72;3.53;;;;;;;10.27;100.00;99323.00;5086854;28;20036;-78
2022/05/24 05:52:39;;;;;;;7.03;3.35;;;;;;;10.26;100.00;99320.50;5071901;28;20828;-78
2022/05/24 05:55:05;;;;;;;9.52;3.38;;;;;;;10.26;100.00;99323.13;5079765;28;20032;-77
2022/05/24 05:57:33;;;;;;;10.75;4.13;;;;;;;10.25;100.00;99317.03;5081801;28;20147;-78
2022/05/24 05:59:58;;;;;;;9.05;3.65;;;;;;;10.41;100.00;99347.53;5081422;28;20032;-78
2022/05/24 06:02:24;;;;;;;9.65;3.20;;;;;;;10.31;100.00;99338.59;5081717;28;20038;-75
2022/05/24 06:04:49;;;;;;;11.10;3.58;;;;;;;10.35;100.00;99340.03;5079999;28;20534;-77
2022/05/24 06:07:15;;;;;;;6.45;3.22;;;;;;;10.36;100.00;99342.59;5073501;28;20040;-75
2022/05/24 06:09:40;;;;;;;7.13;3.58;;;;;;;10.45;100.00;99346.38;5075828;28;20024;-78
2022/05/24 06:12:06;;;;;;;12.23;4.70;;;;;;;10.49;100.00;99338.19;5076171;28;20602;-78
2022/05/24 06:14:31;;;;;;;6.97;4.00;;;;;;;10.75;100.00;99365.34;5073459;28;20036;-77
2022/05/24 06:16:56;;;;;;;7.35;4.03;;;;;;;10.76;100.00;99351.25;5077096;28;20533;-78
2022/05/24 06:19:22;;;;;;;9.27;4.40;;;;;;;10.89;100.00;99344.22;5078792;28;20067;-78
2022/05/24 06:21:47;;;;;;;11.95;4.78;;;;;;;11.07;100.00;99358.75;5078846;28;20024;-79
2022/05/24 06:24:14;;;;;;;7.35;3.85;;;;;;;11.12;100.00;99346.09;5071288;28;20478;-77
2022/05/24 06:26:40;;;;;;;16.25;4.18;;;;;;;11.27;100.00;99355.56;5076794;28;20025;-79
2022/05/24 06:29:05;;;;;;;10.15;3.40;;;;;;;11.36;100.00;99379.53;5060267;28;20056;-76
2022/05/24 06:31:31;;;;;;;5.93;2.88;;;;;;;11.47;100.00;99367.31;5060510;28;20506;-70
2022/05/24 06:33:57;;;;;;;4.80;2.65;;;;;;;11.31;100.00;99364.09;5055479;28;20035;-75
2022/05/24 06:36:22;;;;;;;6.53;2.83;;;;;;;11.71;100.00;99396.34;5053143;28;20059;-74
2022/05/24 06:38:48;;;;;;;5.32;2.83;;;;;;;11.63;100.00;99373.19;5055583;28;20054;-76
2022/05/24 06:41:13;;;;;;;8.68;3.05;;;;;;;11.77;100.00;99396.75;5053897;28;20105;-77
2022/05/24 06:43:38;;;;;;;7.32;3.38;;;;;;;11.97;100.00;99418.19;5053376;28;20025;-75
2022/05/24 06:46:07;;;;;;;9.07;3.90;;;;;;;11.99;100.00;99398.72;5043090;28;20028;-77
2022/05/24 06:48:41;;;;;;;7.50;3.67;;;;;;;12.08;100.00;99429.63;5066246;28;20028;-79
2022/05/24 06:51:12;;;;;;;4.47;2.85;;;;;;;12.12;100.00;99440.78;5053124;28;20106;-76
2022/05/24 06:53:39;;;;;;;7.60;3.05;;;;;;;12.04;100.00;99420.28;5054347;28;20024;-75
2022/05/24 06:56:06;;;;;;;5.13;3.20;;;;;;;12.08;100.00;99423.53;5057576;28;20033;-74
2022/05/24 06:58:32;;;;;;;6.40;3.22;;;;;;;12.03;100.00;99409.88;5061882;28;20036;-74
2022/05/24 07:03:41;;;;;;;5.07;3.28;;;;;;;12.32;100.00;99413.00;5057386;28;20149;-79
2022/05/24 07:06:07;;;;;;;7.00;3.20;;;;;;;12.29;100.00;99404.38;5071774;28;20103;-75
2022/05/24 07:08:32;;;;;;;4.93;2.92;;;;;;;12.57;100.00;99447.97;5064324;28;20588;-77
2022/05/24 07:10:58;;;;;;;9.30;2.85;;;;;;;12.51;100.00;99439.69;5076316;28;20074;-78
2022/05/24 07:13:23;;;;;;;7.57;2.70;;;;;;;12.37;100.00;99426.69;5077680;28;20468;-79
2022/05/24 07:15:49;;;;;;;5.30;2.65;;;;;;;12.21;100.00;99409.38;5080392;28;20039;-75
2022/05/24 07:18:15;;;;;;;7.15;2.78;;;;;;;12.34;100.00;99442.69;5074744;28;20536;-79
2022/05/24 07:20:41;;;;;;;5.05;2.70;;;;;;;12.15;100.00;99420.34;5079333;28;20032;-77
2022/05/24 07:23:12;;;;;;;4.50;2.33;;;;;;;12.27;100.00;99429.97;5076366;28;20046;-79
2022/05/24 07:25:40;;;;;;;7.60;2.75;;;;;;;12.34;100.00;99445.34;5072503;28;20036;-78
2022/05/24 07:28:06;;;;;;;5.57;2.42;;;;;;;12.16;100.00;99426.47;5089161;28;20579;-78
2022/05/24 07:30:31;;;;;;;4.57;2.33;;;;;;;12.39;100.00;99438.81;5060463;28;20040;-79
2022/05/24 07:32:57;;;;;;;5.35;2.85;;;;;;;12.35;100.00;99404.88;5076201;28;20028;-77
2022/05/24 07:35:22;;;;;;;4.97;2.38;;;;;;;12.82;100.00;99449.66;5073844;28;20066;-77
2022/05/24 07:37:47;;;;;;;5.65;2.30;;;;;;;12.82;100.00;99433.81;5071620;28;20024;-79
2022/05/24 07:45:49;;;;;;;5.20;1.87;;;;;;;13.04;100.00;99465.56;5076922;28;20863;-74
2022/05/24 07:48:17;;;;;;;3.17;1.52;;;;;;;12.94;100.00;99453.19;5079537;28;20048;-78
2022/05/24 07:50:42;;;;;;;6.22;1.60;;;;;;;13.01;100.00;99464.94;5076723;28;20067;-78
2022/05/24 07:53:08;;;;;;;2.42;1.33;;;;;;;13.04;100.00;99472.63;5067875;28;20030;-77
2022/05/24 07:55:34;;;;;;;5.00;2.28;;;;;;;13.04;100.00;99470.84;5065577;28;20804;-80
2022/05/24 07:57:59;;;;;;;5.22;1.85;;;;;;;13.00;100.00;99448.28;5072175;28;20053;-78
2022/05/24 08:00:25;;;;;;;4.93;1.85;;;;;;;13.15;100.00;99464.75;5072949;28;20024;-80
2022/05/24 08:02:51;;;;;;;4.15;1.80;;;;;;;13.29;100.00;99494.41;5071504;28;20127;-79
2022/05/24 08:05:18;;;;;;;5.93;1.75;;;;;;;12.92;100.00;99429.53;5068689;28;20063;-76
2022/05/24 08:07:45;;;;;;;6.10;1.95;;;;;;;13.14;100.00;99471.84;5081170;28;20135;-79
2022/05/24 08:10:10;;;;;;;7.53;1.45;;;;;;;13.41;100.00;99510.28;5065615;28;20056;-78
2022/05/24 08:12:36;;;;;;;5.20;1.88;;;;;;;13.35;100.00;99494.94;5070045;28;20985;-79
2022/05/24 08:15:01;;;;;;;6.60;1.60;;;;;;;13.43;100.00;99518.91;5068844;28;20036;-72
2022/05/24 08:17:27;;;;;;;3.75;1.40;;;;;;;13.37;100.00;99535.22;5070434;28;20044;-77
2022/05/24 08:19:52;;;;;;;6.30;2.10;;;;;;;13.23;100.00;99518.63;5069651;28;20111;-73
2022/05/24 08:22:18;;;;;;;3.80;1.92;;;;;;;13.23;100.00;99513.34;5060992;28;20032;-78
2022/05/24 08:24:44;;;;;;;3.53;1.65;;;;;;;13.52;100.00;99524.34;5055112;28;20029;-73
2022/05/24 08:27:11;;;;;;;4.88;2.10;;;;;;;13.66;100.00;99520.63;5050453;28;20036;-77
2022/05/24 08:29:36;;;;;;;4.35;2.08;;;;;;;13.79;100.00;99542.50;5039211;28;20982;-78
2022/05/24 08:32:02;;;;;;;4.40;2.05;;;;;;;13.68;100.00;99545.13;5076409;28;20036;-74
2022/05/24 08:34:28;;;;;;;3.58;1.63;;;;;;;13.25;100.00;99519.34;5034508;28;20031;-72
2022/05/24 08:36:53;;;;;;;5.43;1.50;;;;;;;13.16;100.00;99549.06;5049387;28;20028;-73
2022/05/24 08:39:18;;;;;;;5.05;1.70;;;;;;;12.85;100.00;99532.94;5053801;28;20120;-76
2022/05/24 08:41:56;;;;;;;5.00;1.20;;;;;;;12.83;100.00;99546.25;5051110;28;20852;-75
2022/05/24 08:50:16;;;;;;;3.47;1.63;;;;;;;13.26;100.00;99555.34;5041288;28;20098;-75
2022/05/24 08:52:47;;;;;;;4.50;1.33;;;;;;;13.20;100.00;99555.81;5047999;28;20025;-76
2022/05/24 08:55:14;;;;;;;3.03;1.75;;;;;;;13.28;100.00;99571.88;5017492;28;20094;-71
2022/05/24 08:57:44;;;;;;;3.22;1.40;;;;;;;13.35;100.00;99560.91;5041733;28;20125;-80
2022/05/24 09:00:14;;;;;;;7.47;1.92;;;;;;;13.56;100.00;99561.91;5053944;28;20135;-77
2022/05/24 09:02:45;;;;;;;6.00;1.40;;;;;;;13.78;100.00;99573.38;5055584;28;20032;-78
2022/05/24 09:05:25;;;;;;;2.13;0.95;;;;;;;14.06;100.00;99572.06;5055544;28;20028;-80
2022/05/24 09:08:18;;;;;;;3.40;1.35;;;;;;;14.38;100.00;99574.03;5050500;28;20143;-73
2022/05/24 09:11:08;;;;;;;3.30;1.60;;;;;;;14.55;100.00;99562.94;5057924;28;20037;-74
2022/05/24 09:14:04;;;;;;;4.18;1.55;;;;;;;14.72;100.00;99580.94;5057990;28;20433;-77
2022/05/24 09:16:54;;;;;;;2.95;1.25;;;;;;;14.72;100.00;99573.03;5049807;28;20553;-77
2022/05/24 09:19:31;;;;;;;3.75;1.58;;;;;;;14.84;100.00;99593.19;5050825;28;20037;-73
2022/05/24 09:21:57;;;;;;;12.68;1.85;;;;;;;14.72;100.00;99599.47;5038163;28;20094;-77
2022/05/24 09:24:56;;;;;;;3.40;1.90;;;;;;;14.53;100.00;99596.63;5066912;28;20876;-79
2022/05/24 09:27:28;;;;;;;9.13;1.88;;;;;;;14.17;100.00;99572.06;5039109;28;20052;-75
2022/05/24 09:30:03;;;;;;;2.40;1.25;;;;;;;14.19;100.00;99593.91;5052186;28;20024;-80
2022/05/24 09:32:42;;;;;;;3.63;1.48;;;;;;;14.20;100.00;99592.13;5043785;28;20090;-79
2022/05/24 09:35:20;;;;;;;4.93;1.40;;;;;;;14.33;100.00;99604.28;5048140;28;20028;-77
2022/05/24 09:38:04;;;;;;;3.35;1.98;;;;;;;14.36;100.00;99602.38;5032931;28;20036;-74
2022/05/24 09:40:32;;;;;;;3.25;1.48;;;;;;;14.30;100.00;99606.28;5034256;28;20868;-79
2022/05/24 09:43:16;;;;;;;8.50;1.27;;;;;;;14.12;100.00;99600.66;5052653;28;20044;-78
2022/05/24 09:45:46;;;;;;;4.60;1.87;;;;;;;13.75;100.00;99596.53;5054663;28;20029;-78
2022/05/24 09:48:21;;;;;;;4.82;1.42;;;;;;;13.44;100.00;99591.88;5036622;28;20036;-76
2022/05/24 09:50:51;;;;;;;6.30;1.77;;;;;;;13.50;100.00;99618.63;5036761;28;20051;-76
2022/05/24 09:53:22;;;;;;;2.92;1.67;;;;;;;13.65;100.00;99600.81;5032204;28;20036;-76
2022/05/24 09:55:50;;;;;;;3.80;1.83;;;;;;;14.02;100.00;99628.75;5031857;28;20025;-73
2022/05/24 09:58:15;;;;;;;3.53;1.83;;;;;;;14.14;100.00;99626.94;5031931;28;20036;-74
2022/05/24 10:01:07;;;;;;;7.05;1.83;;;;;;;14.28;100.00;99629.38;5031481;28;20043;-77
2022/05/24 10:03:37;;;;;;;9.00;2.17;;;;;;;14.43;100.00;99622.09;5033181;28;20049;-78
2022/05/24 10:06:24;;;;;;;7.95;2.10;;;;;;;14.61;100.00;99626.75;5032763;28;20041;-74
2022/05/24 10:09:11;;;;;;;3.72;1.60;;;;;;;14.71;100.00;99622.41;5032725;28;20043;-77
2022/05/24 10:11:41;;;;;;;8.45;1.80;;;;;;;14.65;100.00;99604.41;5031617;28;20036;-75
2022/05/24 10:14:17;;;;;;;3.78;1.85;;;;;;;14.87;100.00;99623.84;5033342;28;20043;-72
2022/05/24 10:17:04;;;;;;;4.05;1.83;;;;;;;15.04;100.00;99618.88;5033345;28;20872;-76
2022/05/24 10:19:33;;;;;;;5.45;1.85;;;;;;;15.23;100.00;99624.38;5032123;28;20028;-77
2022/05/24 10:22:32;;;;;;;6.90;2.22;;;;;;;15.41;100.00;99626.47;5032141;28;20082;-71
2022/05/24 10:25:23;;;;;;;5.50;2.53;;;;;;;15.26;100.00;99586.22;5033245;28;20085;-79
2022/05/24 10:28:13;;;;;;;4.72;2.08;;;;;;;15.84;100.00;99627.25;5048542;28;20032;-75
2022/05/24 10:30:56;;;;;;;2.72;1.35;;;;;;;15.97;100.00;99617.28;4972181;28;2183530;-77
2022/05/24 10:39:06;;;;;;;2.83;1.27;;;;;;;15.88;100.00;99657.81;5033556;28;20277;-76
2022/05/24 10:41:43;;;;;;;5.25;1.60;;;;;;;15.60;100.00;99671.66;5048651;28;20121;-78
2022/05/24 10:44:18;;;;;;;2.25;0.85;;;;;;;14.95;100.00;99656.66;5033178;28;20036;-76
2022/05/24 10:46:49;;;;;;;1.83;0.65;;;;;;;14.13;100.00;99659.59;5050027;28;20032;-80
2022/05/24 10:49:21;;;;;;;4.47;1.30;;;;;;;12.81;100.00;99662.34;5032330;28;20091;-78
2022/05/24 10:52:11;;;;;;;3.40;1.95;;;;;;;12.16;100.00;99640.63;5032935;28;20929;-79
2022/05/24 10:54:43;;;;;;;3.13;1.73;;;;;;;12.10;100.00;99646.28;5034035;28;20431;-76
2022/05/24 10:57:30;;;;;;;3.40;1.88;;;;;;;12.36;100.00;99646.31;5035336;28;20080;-74
2022/05/24 11:00:17;;;;;;;5.18;2.50;;;;;;;12.87;100.00;99636.50;5031530;28;20114;-74
2022/05/24 11:03:00;;;;;;;3.97;2.03;;;;;;;13.40;100.00;99636.09;5031640;28;20025;-73
2022/05/24 11:05:38;;;;;;;5.97;2.45;;;;;;;13.82;100.00;99637.34;5049252;28;20029;-73
2022/05/24 11:08:30;;;;;;;5.00;2.10;;;;;;;14.19;100.00;99638.84;5015608;28;20063;-72
2022/05/24 11:10:57;;;;;;;4.03;1.92;;;;;;;14.55;100.00;99631.69;5032373;28;20877;-72
2022/05/24 11:13:41;;;;;;;2.67;1.45;;;;;;;14.80;100.00;99628.78;5030062;28;20035;-73
2022/05/24 11:16:12;;;;;;;5.38;1.75;;;;;;;15.38;100.00;99632.84;5048924;28;20032;-75
2022/05/24 11:18:41;;;;;;;3.15;1.27;;;;;;;15.16;100.00;99575.53;5031671;28;20032;-73
2022/05/24 11:21:33;;;;;;;2.88;1.48;;;;;;;15.74;100.00;99639.59;5032164;28;20785;-73
2022/05/24 11:24:11;;;;;;;3.47;1.27;;;;;;;15.81;100.00;99614.28;5028136;28;20043;-75
2022/05/24 11:26:39;;;;;;;4.75;1.23;;;;;;;16.18;100.00;99618.13;5050860;28;20082;-75
2022/05/24 11:29:28;;;;;;;4.30;1.80;;;;;;;16.85;100.00;99644.13;5034909;28;20032;-73
2022/05/24 11:32:00;;;;;;;3.78;1.45;;;;;;;17.06;100.00;99614.84;5048385;28;20170;-78
2022/05/24 11:34:32;;;;;;;3.47;1.55;;;;;;;17.37;100.00;99649.09;5045692;28;20090;-73
2022/05/24 11:37:05;;;;;;;2.78;1.15;;;;;;;17.35;100.00;99645.75;5030843;28;20326;-73
2022/05/24 11:39:36;;;;;;;3.22;1.90;;;;;;;17.07;100.00;99656.31;5030437;28;20025;-74
2022/05/24 11:42:28;;;;;;;6.80;1.77;;;;;;;16.59;100.00;99661.47;5031655;28;20030;-74
2022/05/24 11:44:57;;;;;;;3.83;1.80;;;;;;;16.20;100.00;99678.94;5031851;28;20031;-78
2022/05/24 11:47:34;;;;;;;6.55;1.70;;;;;;;15.79;100.00;99706.25;5029969;28;20040;-73
2022/05/24 11:50:23;;;;;;;2.65;1.15;;;;;;;15.26;100.00;99674.41;5031952;28;20072;-80
2022/05/24 11:53:15;;;;;;;1.88;0.90;;;;;;;14.73;100.00;99667.28;5032881;28;20038;-75
2022/05/24 11:55:48;;;;;;;5.63;0.85;;;;;;;16.24;100.00;99707.72;5031515;28;20066;-74
2022/05/24 11:58:20;;;;;;;1.50;0.60;;;;;;;17.23;100.00;99702.63;5048530;28;20039;-74
2022/05/24 12:00:55;;;;;;;4.78;0.93;;;;;;;17.98;100.00;99699.34;5031940;28;20029;-77
2022/05/24 12:09:24;;;;;;;4.47;0.80;;;;;;;20.30;83.26;99701.56;5031691;28;20162;-75
2022/05/24 12:12:13;;;;;;;2.70;1.08;;;;;;;19.03;84.89;99708.91;5047130;28;20144;-76
2022/05/24 12:14:39;;;;;;;3.15;0.80;;;;;;;18.02;89.11;99706.06;5031053;28;20060;-79
2022/05/24 12:17:04;;;;;;;2.13;1.10;;;;;;;17.19;100.00;99738.38;5032955;28;20089;-75
2022/05/24 12:19:42;;;;;;;3.80;1.17;;;;;;;16.21;100.00;99744.25;5032328;28;20028;-76